createdAt,value
2022-11-14T00:00:56.001Z,5.00
2022-11-14T00:03:44.753Z,5.02
2022-11-14T00:06:33.235Z,4.99
2022-11-14T00:09:28.688Z,5.00
2022-11-14T00:12:17.383Z,4.90
2022-11-14T00:15:07.457Z,4.93
2022-11-14T00:17:56.601Z,4.94
2022-11-14T00:20:45.521Z,5.03
2022-11-14T00:23:34.361Z,5.02
2022-11-14T00:26:26.122Z,4.97
2022-11-14T00:29:15.106Z,4.98
2022-11-14T00:32:03.697Z,4.97
2022-11-14T00:34:53.046Z,5.00
2022-11-14T00:37:42.079Z,5.02
2022-11-14T00:40:30.409Z,5.11
2022-11-14T00:43:25.355Z,5.04
2022-11-14T00:46:15.111Z,5.05
2022-11-14T00:49:04.223Z,5.09
2022-11-14T00:51:52.744Z,5.00
2022-11-14T00:54:41.608Z,5.02
2022-11-14T00:57:30.343Z,4.95
2022-11-14T01:00:22.300Z,4.88
2022-11-14T01:03:10.907Z,4.88
2022-11-14T01:05:59.468Z,4.94
2022-11-14T01:08:48.569Z,4.99
2022-11-14T01:11:37.433Z,4.93
2022-11-14T01:14:26.216Z,4.92
2022-11-14T01:17:17.364Z,4.92
2022-11-14T01:20:06.709Z,4.86
2022-11-14T01:22:55.152Z,4.90
2022-11-14T01:25:45.237Z,4.82
2022-11-14T01:28:34.923Z,4.73
2022-11-14T01:31:27.121Z,4.74
2022-11-14T01:34:19.035Z,4.64
2022-11-14T01:37:07.721Z,4.68
2022-11-14T01:39:56.911Z,4.72
2022-11-14T01:42:46.040Z,4.62
2022-11-14T01:45:56.115Z,4.66
2022-11-14T01:48:48.835Z,4.61
2022-11-14T01:51:44.100Z,4.65
2022-11-14T01:54:37.635Z,4.68
2022-11-14T01:57:30.651Z,4.68
2022-11-14T02:00:19.741Z,4.66
2022-11-14T02:03:08.255Z,4.69
2022-11-14T02:05:57.701Z,4.71
2022-11-14T02:08:51.016Z,4.73
2022-11-14T02:11:44.091Z,4.81
2022-11-14T02:14:33.351Z,4.72
2022-11-14T02:17:29.484Z,4.69
2022-11-14T02:20:28.660Z,4.69
2022-11-14T02:23:20.998Z,4.65
2022-11-14T02:26:09.601Z,4.60
2022-11-14T02:28:58.528Z,4.61
2022-11-14T02:31:46.833Z,4.61
2022-11-14T02:34:35.619Z,4.69
2022-11-14T02:37:26.825Z,4.69
2022-11-14T02:40:15.814Z,4.54
2022-11-14T02:43:04.557Z,4.52
2022-11-14T02:45:53.968Z,4.55
2022-11-14T02:48:43.156Z,4.63
2022-11-14T02:51:32.118Z,4.50
2022-11-14T02:54:24.207Z,4.56
2022-11-14T02:57:13.032Z,4.60
2022-11-14T03:00:01.670Z,4.60
2022-11-14T03:02:50.741Z,4.60
2022-11-14T03:05:39.362Z,4.62
2022-11-14T03:08:28.279Z,4.53
2022-11-14T03:11:21.271Z,4.50
2022-11-14T03:14:09.733Z,4.59
2022-11-14T03:16:58.536Z,4.51
2022-11-14T03:19:47.354Z,4.64
2022-11-14T03:22:35.680Z,4.52
2022-11-14T03:25:24.313Z,4.49
2022-11-14T03:28:16.060Z,4.50
2022-11-14T03:31:05.863Z,4.50
2022-11-14T03:33:54.533Z,4.49
2022-11-14T03:36:43.606Z,4.56
2022-11-14T03:39:31.992Z,4.51
2022-11-14T03:42:20.548Z,4.48
2022-11-14T03:45:13.840Z,4.53
2022-11-14T03:48:02.930Z,4.57
2022-11-14T03:50:51.701Z,4.50
2022-11-14T03:53:40.846Z,4.57
2022-11-14T03:56:29.853Z,4.58
2022-11-14T03:59:18.721Z,4.46
2022-11-14T04:02:10.213Z,4.60
2022-11-14T04:04:58.998Z,4.56
2022-11-14T04:07:47.625Z,4.52
2022-11-14T04:10:36.125Z,4.47
2022-11-14T04:13:24.929Z,4.34
2022-11-14T04:16:14.438Z,4.33
2022-11-14T04:19:05.578Z,4.39
2022-11-14T04:21:53.856Z,4.44
2022-11-14T04:24:42.490Z,4.38
2022-11-14T04:27:31.759Z,4.45
2022-11-14T04:30:20.986Z,4.48
2022-11-14T04:33:09.756Z,4.49
2022-11-14T04:36:01.296Z,4.53
2022-11-14T04:38:49.760Z,4.47
2022-11-14T04:41:38.632Z,4.50
2022-11-14T04:44:27.703Z,4.42
2022-11-14T04:47:16.147Z,4.44
2022-11-14T04:50:05.177Z,4.46
2022-11-14T04:52:57.785Z,4.49
2022-11-14T04:55:47.736Z,4.49
2022-11-14T04:58:36.272Z,4.52
2022-11-14T05:01:25.298Z,4.41
2022-11-14T05:04:14.324Z,4.36
2022-11-14T05:07:03.113Z,4.45
2022-11-14T05:09:54.523Z,4.43
2022-11-14T05:12:43.696Z,4.38
2022-11-14T05:15:33.229Z,4.39
2022-11-14T05:18:21.873Z,4.44
2022-11-14T05:21:10.550Z,4.40
2022-11-14T05:23:58.942Z,4.46
2022-11-14T05:26:50.328Z,4.44
2022-11-14T05:29:38.884Z,4.47
2022-11-14T05:32:28.149Z,4.43
2022-11-14T05:35:17.050Z,4.44
2022-11-14T05:38:08.685Z,4.32
2022-11-14T05:40:57.957Z,4.37
2022-11-14T05:43:50.323Z,4.33
2022-11-14T05:46:39.039Z,4.29
2022-11-14T05:49:28.012Z,4.24
2022-11-14T05:52:16.841Z,4.29
2022-11-14T05:55:05.739Z,4.31
2022-11-14T05:57:55.104Z,4.38
2022-11-14T06:00:53.451Z,4.29
2022-11-14T06:03:45.717Z,4.27
2022-11-14T06:06:34.465Z,4.28
2022-11-14T06:09:23.121Z,4.26
2022-11-14T06:12:11.600Z,4.28
2022-11-14T06:15:01.178Z,4.34
2022-11-14T06:17:55.013Z,4.35
2022-11-14T06:20:43.724Z,4.34
2022-11-14T06:23:32.452Z,4.38
2022-11-14T06:26:24.927Z,4.31
2022-11-14T06:29:13.689Z,4.31
2022-11-14T06:32:02.495Z,4.38
2022-11-14T06:34:54.138Z,4.42
2022-11-14T06:37:42.486Z,4.28
2022-11-14T06:40:31.539Z,4.33
2022-11-14T06:43:21.487Z,4.41
2022-11-14T06:46:11.350Z,4.42
2022-11-14T06:48:59.988Z,4.47
2022-11-14T06:51:51.652Z,4.41
2022-11-14T06:54:40.577Z,4.40
2022-11-14T06:57:30.395Z,4.42
2022-11-14T07:00:20.340Z,4.49
2022-11-14T07:03:09.115Z,4.51
2022-11-14T07:06:01.607Z,4.50
2022-11-14T07:08:55.107Z,4.53
2022-11-14T07:11:46.622Z,4.50
2022-11-14T07:14:35.464Z,4.44
2022-11-14T07:17:30.795Z,4.45
2022-11-14T07:20:21.378Z,4.35
2022-11-14T07:23:10.056Z,4.20
2022-11-14T07:26:05.075Z,4.25
2022-11-14T07:28:59.177Z,4.35
2022-11-14T07:31:50.715Z,4.45
2022-11-14T07:34:40.060Z,4.42
2022-11-14T07:37:29.020Z,4.47
2022-11-14T07:40:17.779Z,4.56
2022-11-14T07:43:09.642Z,4.66
2022-11-14T07:46:04.146Z,4.64
2022-11-14T07:48:52.648Z,4.63
2022-11-14T07:51:42.307Z,4.69
2022-11-14T07:54:31.128Z,4.69
2022-11-14T07:57:19.632Z,4.56
2022-11-14T08:00:13.200Z,4.56
2022-11-14T08:03:01.936Z,4.54
2022-11-14T08:05:50.563Z,4.66
2022-11-14T08:08:40.585Z,4.74
2022-11-14T08:11:41.375Z,4.61
2022-11-14T08:14:29.745Z,4.79
2022-11-14T08:17:21.772Z,5.00
2022-11-14T08:20:12.840Z,4.94
2022-11-14T08:23:05.597Z,4.67
2022-11-14T08:25:54.096Z,4.66
2022-11-14T08:28:42.987Z,4.68
2022-11-14T08:31:32.015Z,4.82
2022-11-14T08:34:24.079Z,4.90
2022-11-14T08:37:13.096Z,4.83
2022-11-14T08:40:01.961Z,4.83
2022-11-14T08:42:50.687Z,4.96
2022-11-14T08:45:40.607Z,5.00
2022-11-14T08:48:29.888Z,5.03
2022-11-14T08:51:21.471Z,4.94
2022-11-14T08:54:10.171Z,5.21
2022-11-14T08:56:58.833Z,5.24
2022-11-14T08:59:47.470Z,4.77
2022-11-14T09:02:35.700Z,5.15
2022-11-14T09:05:24.402Z,5.09
2022-11-14T09:08:16.490Z,5.33
2022-11-14T09:11:09.273Z,5.40
2022-11-14T09:13:58.697Z,5.19
2022-11-14T09:16:47.497Z,5.15
2022-11-14T09:19:36.293Z,5.23
2022-11-14T09:22:24.895Z,5.18
2022-11-14T09:25:16.387Z,5.11
2022-11-14T09:28:07.404Z,5.34
2022-11-14T09:31:04.139Z,5.26
2022-11-14T09:33:52.793Z,5.34
2022-11-14T09:36:41.278Z,5.45
2022-11-14T09:39:30.423Z,5.53
2022-11-14T09:42:31.141Z,5.62
2022-11-14T09:45:20.742Z,5.30
2022-11-14T09:48:16.356Z,5.16
2022-11-14T09:51:12.254Z,5.39
2022-11-14T09:54:08.471Z,5.27
2022-11-14T09:56:57.828Z,5.47
2022-11-14T09:59:49.365Z,5.52
2022-11-14T10:02:47.671Z,5.55
2022-11-14T10:06:00.055Z,5.42
2022-11-14T10:08:59.280Z,5.54
2022-11-14T10:11:54.113Z,5.52
2022-11-14T10:15:18.613Z,5.45
2022-11-14T10:18:22.034Z,5.42
2022-11-14T10:21:22.467Z,5.47
2022-11-14T10:24:31.575Z,5.60
2022-11-14T10:27:23.287Z,5.60
2022-11-14T10:30:25.682Z,5.79
2022-11-14T10:33:28.905Z,5.77
2022-11-14T10:36:29.605Z,5.81
2022-11-14T10:39:23.093Z,5.75
2022-11-14T10:42:17.240Z,5.87
2022-11-14T10:45:11.836Z,5.63
2022-11-14T10:48:06.416Z,5.68
2022-11-14T10:50:59.194Z,5.72
2022-11-14T10:53:55.042Z,5.69
2022-11-14T10:56:51.567Z,5.85
2022-11-14T10:59:40.357Z,6.01
2022-11-14T11:02:32.764Z,5.97
2022-11-14T11:05:32.767Z,5.91
2022-11-14T11:08:43.117Z,5.65
2022-11-14T11:11:35.262Z,5.77
2022-11-14T11:14:24.487Z,5.83
2022-11-14T11:17:29.476Z,6.03
2022-11-14T11:20:38.186Z,6.04
2022-11-14T11:23:29.905Z,6.17
2022-11-14T11:26:28.486Z,5.89
2022-11-14T11:29:21.014Z,6.06
2022-11-14T11:32:11.677Z,5.75
2022-11-14T11:35:02.649Z,5.75
2022-11-14T11:38:00.279Z,5.73
2022-11-14T11:40:53.906Z,5.75
2022-11-14T11:43:54.070Z,5.87
2022-11-14T11:46:50.591Z,5.84
2022-11-14T11:49:51.772Z,5.77
2022-11-14T11:52:50.727Z,5.85
2022-11-14T11:55:46.414Z,5.89
2022-11-14T11:58:44.573Z,6.01
2022-11-14T12:01:33.680Z,6.05
2022-11-14T12:04:22.223Z,5.89
2022-11-14T12:07:15.627Z,5.80
2022-11-14T12:10:14.775Z,6.03
2022-11-14T12:13:33.315Z,6.13
2022-11-14T12:16:35.948Z,6.21
2022-11-14T12:19:46.469Z,6.19
2022-11-14T12:22:58.836Z,6.28
2022-11-14T12:26:04.679Z,6.24
2022-11-14T12:29:19.811Z,6.32
2022-11-14T12:32:16.639Z,6.46
2022-11-14T12:35:10.911Z,6.37
2022-11-14T12:38:07.273Z,6.39
2022-11-14T12:40:58.072Z,6.46
2022-11-14T12:43:47.786Z,6.45
2022-11-14T12:47:20.040Z,6.35
2022-11-14T12:50:37.205Z,6.34
2022-11-14T12:53:42.380Z,6.41
2022-11-14T12:56:56.606Z,6.43
2022-11-14T13:00:05.467Z,6.42
2022-11-14T13:03:20.889Z,6.45
2022-11-14T13:06:13.152Z,6.47
2022-11-14T13:09:35.599Z,6.31
2022-11-14T13:12:45.537Z,6.25
2022-11-14T13:15:50.013Z,6.44
2022-11-14T13:19:09.886Z,6.25
2022-11-14T13:22:37.283Z,6.26
2022-11-14T13:25:27.325Z,6.33
2022-11-14T13:28:45.681Z,6.47
2022-11-14T13:31:51.563Z,6.39
2022-11-14T13:34:48.603Z,6.16
2022-11-14T13:37:57.888Z,6.26
2022-11-14T13:40:54.265Z,6.11
2022-11-14T13:43:59.696Z,6.15
2022-11-14T13:47:13.074Z,6.21
2022-11-14T13:50:12.018Z,6.20
2022-11-14T13:53:01.640Z,6.21
2022-11-14T13:55:58.907Z,6.26
2022-11-14T13:59:09.784Z,6.26
2022-11-14T14:02:24.661Z,6.14
2022-11-14T14:05:27.197Z,6.22
2022-11-14T14:08:27.754Z,6.20
2022-11-14T14:11:43.005Z,6.19
2022-11-14T14:14:51.329Z,6.25
2022-11-14T14:17:50.373Z,6.26
2022-11-14T14:20:50.156Z,6.25
2022-11-14T14:23:49.355Z,6.20
2022-11-14T14:26:55.923Z,6.19
2022-11-14T14:29:54.588Z,6.19
2022-11-14T14:32:43.289Z,6.08
2022-11-14T14:35:38.901Z,6.10
2022-11-14T14:38:32.659Z,6.00
2022-11-14T14:41:23.060Z,6.11
2022-11-14T14:44:23.665Z,6.05
2022-11-14T14:47:20.139Z,6.18
2022-11-14T14:50:31.459Z,6.06
2022-11-14T14:53:23.810Z,6.12
2022-11-14T14:56:22.592Z,6.13
2022-11-14T14:59:23.703Z,6.13
2022-11-14T15:02:19.564Z,6.07
2022-11-14T15:05:09.216Z,6.02
2022-11-14T15:08:00.921Z,6.00
2022-11-14T15:10:49.676Z,5.94
2022-11-14T15:13:41.069Z,5.96
2022-11-14T15:16:31.087Z,5.92
2022-11-14T15:19:23.618Z,5.85
2022-11-14T15:22:26.354Z,5.79
2022-11-14T15:25:23.152Z,5.64
2022-11-14T15:28:20.810Z,5.52
2022-11-14T15:31:21.121Z,5.46
2022-11-14T15:34:26.000Z,5.41
2022-11-14T15:37:26.261Z,5.38
2022-11-14T15:40:22.712Z,5.30
2022-11-14T15:43:50.849Z,5.29
2022-11-14T15:46:49.265Z,5.23
2022-11-14T15:49:38.474Z,5.16
2022-11-14T15:52:30.592Z,5.06
2022-11-14T15:55:20.857Z,4.91
2022-11-14T15:58:27.789Z,4.85
2022-11-14T16:01:26.218Z,4.83
2022-11-14T16:04:21.108Z,4.80
2022-11-14T16:07:09.495Z,4.79
2022-11-14T16:09:58.252Z,4.78
2022-11-14T16:12:52.236Z,4.82
2022-11-14T16:15:41.440Z,4.87
2022-11-14T16:18:29.838Z,4.93
2022-11-14T16:21:21.841Z,4.93
2022-11-14T16:24:17.161Z,5.02
2022-11-14T16:27:06.752Z,5.07
2022-11-14T16:29:55.545Z,5.09
2022-11-14T16:32:46.426Z,5.15
2022-11-14T16:35:35.769Z,5.19
2022-11-14T16:38:26.941Z,5.23
2022-11-14T16:41:17.630Z,5.33
2022-11-14T16:44:07.414Z,5.35
2022-11-14T16:46:56.221Z,5.42
2022-11-14T16:49:44.870Z,5.42
2022-11-14T16:52:33.760Z,5.43
2022-11-14T16:55:25.669Z,5.50
2022-11-14T16:58:14.367Z,5.51
2022-11-14T17:01:05.682Z,5.57
2022-11-14T17:04:00.128Z,5.58
2022-11-14T17:06:49.289Z,5.66
2022-11-14T17:09:39.079Z,5.61
2022-11-14T17:12:30.647Z,5.60
2022-11-14T17:15:23.819Z,5.62
2022-11-14T17:18:14.129Z,5.66
2022-11-14T17:21:02.603Z,5.63
2022-11-14T17:23:56.691Z,5.66
2022-11-14T17:26:45.340Z,5.64
2022-11-14T17:29:36.944Z,5.61
2022-11-14T17:32:25.684Z,5.53
2022-11-14T17:35:15.887Z,5.57
2022-11-14T17:38:04.953Z,5.50
2022-11-14T17:41:00.766Z,5.50
2022-11-14T17:43:51.553Z,5.49
2022-11-14T17:46:43.753Z,5.43
2022-11-14T17:49:33.326Z,5.41
2022-11-14T17:52:21.878Z,5.38
2022-11-14T17:55:14.096Z,5.39
2022-11-14T17:58:02.796Z,5.40
2022-11-14T18:00:54.372Z,5.37
2022-11-14T18:03:45.870Z,5.45
2022-11-14T18:06:36.111Z,5.42
2022-11-14T18:09:24.781Z,5.39
2022-11-14T18:12:13.696Z,5.28
2022-11-14T18:15:02.552Z,5.31
2022-11-14T18:17:51.249Z,5.30
2022-11-14T18:20:44.562Z,5.24
2022-11-14T18:23:33.085Z,5.18
2022-11-14T18:26:28.024Z,5.27
2022-11-14T18:29:17.948Z,5.20
2022-11-14T18:32:06.624Z,5.19
2022-11-14T18:34:55.755Z,5.28
2022-11-14T18:37:47.008Z,5.29
2022-11-14T18:40:36.692Z,5.27
2022-11-14T18:43:25.832Z,5.22
2022-11-14T18:46:16.197Z,5.28
2022-11-14T18:49:04.923Z,5.29
2022-11-14T18:51:53.177Z,5.30
2022-11-14T18:54:44.594Z,5.28
2022-11-14T18:57:33.364Z,5.21
2022-11-14T19:00:28.357Z,5.22
2022-11-14T19:03:17.276Z,5.16
2022-11-14T19:06:06.681Z,5.08
2022-11-14T19:08:59.303Z,5.10
2022-11-14T19:12:02.891Z,5.11
2022-11-14T19:14:53.956Z,5.03
2022-11-14T19:17:43.189Z,5.06
2022-11-14T19:20:32.368Z,4.93
2022-11-14T19:23:23.326Z,4.99
2022-11-14T19:26:13.117Z,4.85
2022-11-14T19:29:05.777Z,4.88
2022-11-14T19:31:54.846Z,4.85
2022-11-14T19:34:43.755Z,4.86
2022-11-14T19:37:32.167Z,4.88
2022-11-14T19:40:20.964Z,4.93
2022-11-14T19:43:09.474Z,4.94
2022-11-14T19:46:04.114Z,4.93
2022-11-14T19:48:52.923Z,4.82
2022-11-14T19:51:41.852Z,4.82
2022-11-14T19:54:30.547Z,4.88
2022-11-14T19:57:19.523Z,4.68
2022-11-14T20:00:09.984Z,4.61
2022-11-14T20:03:01.407Z,4.63
2022-11-14T20:05:50.472Z,4.66
2022-11-14T20:08:39.347Z,4.62
2022-11-14T20:11:30.731Z,4.66
2022-11-14T20:14:19.855Z,4.72
2022-11-14T20:17:09.082Z,4.66
2022-11-14T20:20:01.393Z,4.75
2022-11-14T20:22:49.998Z,4.67
2022-11-14T20:25:39.286Z,4.68
2022-11-14T20:28:28.095Z,4.50
2022-11-14T20:31:22.128Z,4.58
2022-11-14T20:34:11.193Z,4.49
2022-11-14T20:37:11.043Z,4.54
2022-11-14T20:40:00.634Z,4.47
2022-11-14T20:42:51.041Z,4.28
2022-11-14T20:45:44.015Z,4.47
2022-11-14T20:48:34.386Z,4.25
2022-11-14T20:51:25.727Z,4.31
2022-11-14T20:54:17.623Z,4.31
2022-11-14T20:57:06.348Z,4.29
2022-11-14T20:59:55.659Z,4.30
2022-11-14T21:02:45.058Z,4.38
2022-11-14T21:05:34.163Z,4.29
2022-11-14T21:08:41.545Z,4.29
2022-11-14T21:11:33.954Z,4.34
2022-11-14T21:14:22.862Z,4.25
2022-11-14T21:17:13.745Z,4.06
2022-11-14T21:20:02.915Z,4.19
2022-11-14T21:22:51.553Z,4.26
2022-11-14T21:25:40.183Z,4.13
2022-11-14T21:28:36.219Z,4.06
2022-11-14T21:31:28.638Z,4.06
2022-11-14T21:34:18.727Z,4.26
2022-11-14T21:37:07.237Z,4.13
2022-11-14T21:39:56.199Z,4.15
2022-11-14T21:42:45.099Z,4.10
2022-11-14T21:45:38.196Z,4.07
2022-11-14T21:48:27.570Z,4.06
2022-11-14T21:51:19.783Z,3.94
2022-11-14T21:54:08.519Z,4.07
2022-11-14T21:56:57.278Z,4.00
2022-11-14T21:59:46.192Z,4.00
2022-11-14T22:02:52.714Z,4.11
2022-11-14T22:05:41.375Z,4.06
2022-11-14T22:08:30.331Z,3.99
2022-11-14T22:11:18.815Z,4.16
2022-11-14T22:14:07.623Z,4.08
2022-11-14T22:16:58.124Z,4.13
2022-11-14T22:19:49.644Z,4.08
2022-11-14T22:22:38.294Z,4.09
2022-11-14T22:25:27.116Z,4.14
2022-11-14T22:28:15.821Z,4.13
2022-11-14T22:31:10.327Z,4.22
2022-11-14T22:34:01.115Z,4.16
2022-11-14T22:36:52.512Z,4.16
2022-11-14T22:39:41.630Z,4.22
2022-11-14T22:42:30.070Z,4.21
2022-11-14T22:45:19.757Z,4.18
2022-11-14T22:48:08.883Z,4.17
2022-11-14T22:51:02.822Z,4.18
2022-11-14T22:53:55.296Z,4.20
2022-11-14T22:56:44.090Z,4.18
2022-11-14T22:59:32.660Z,4.23
2022-11-14T23:02:21.275Z,4.18
2022-11-14T23:05:10.564Z,4.15
2022-11-14T23:07:59.181Z,4.11
2022-11-14T23:10:51.292Z,4.15
2022-11-14T23:13:40.867Z,4.11
2022-11-14T23:16:31.371Z,4.15
2022-11-14T23:19:21.581Z,4.08
2022-11-14T23:22:09.909Z,4.02
2022-11-14T23:24:59.021Z,4.05
2022-11-14T23:27:50.609Z,4.07
2022-11-14T23:30:41.792Z,4.07
2022-11-14T23:33:31.782Z,4.18
2022-11-14T23:36:20.758Z,4.24
2022-11-14T23:39:09.363Z,4.19
2022-11-14T23:41:58.087Z,4.14
2022-11-14T23:44:49.891Z,4.20
2022-11-14T23:47:39.157Z,4.21
2022-11-14T23:50:27.956Z,4.12
2022-11-14T23:53:16.409Z,4.22
2022-11-14T23:56:07.734Z,4.21
2022-11-14T23:58:56.333Z,4.09
